• Join FlightAware (Why Join?)
  • Login
  • US Flag 
01:21AM EDT


 

Airport Tracker/Info


-or-


 

Live Flight TrackerFlight Track Log ✈ FDX806 ✈ 19-May-2012 ✈ KLAX - KMEM

Flight Track Log - Related Links

Times and Time Zones

All times are in EDT time to prevent confusion due to time zone crossing. See the FDX806 flight status page for this flight to view local times or setup timezone preferences in your user account.

Time Position Orientation Groundspeed Altitude Reporting Facility
EDT Latitude Longitude Course Direction KTS MPH feet Rate Location/Type
09:39AM 33.9333 -118.4500 231° Southwest 181 208 1,400  Level Southern California TRACON
09:40AM 33.8867 -118.5183 188° South 244 281 2,700 1,560 Climbing Los Angeles Center
09:41AM 33.8197 -118.5292 178° South 254 292 4,800 2,340 Climbing Los Angeles Center
09:42AM 33.7406 -118.5267 144° Southeast 273 314 7,400 2,160 Climbing Los Angeles Center
09:43AM 33.6808 -118.4753 107° East 272 313 9,200 1,620 Climbing Los Angeles Center
09:44AM 33.6556 -118.3772 96° East 245 282 10,700 1,380 Climbing Los Angeles Center
09:45AM 33.6453 -118.2644 91° East 297 342 12,000 1,200 Climbing Los Angeles Center
09:46AM 33.6431 -118.1372 90° East 345 397 13,200 1,320 Climbing Los Angeles Center
09:47AM 33.6433 -118.0000 89° East 372 428 14,700 1,500 Climbing Los Angeles Center
09:48AM 33.6453 -117.8628 91° East 399 459 16,300 1,560 Climbing Los Angeles Center
09:49AM 33.6433 -117.7031 90° East 419 482 17,900 1,500 Climbing Los Angeles Center
09:50AM 33.6431 -117.5558 89° East 426 490 19,400 1,440 Climbing Los Angeles Center
09:51AM 33.6447 -117.4061 91° East 438 504 20,800 1,200 Climbing Los Angeles Center
09:52AM 33.6419 -117.2539 90° East 444 511 21,900 900 Climbing Los Angeles Center
09:53AM 33.6411 -117.1217 86° East 450 518 22,700 840 Climbing Los Angeles Center
09:54AM 33.6506 -116.9597 77° East 462 532 23,600 1,080 Climbing Los Angeles Center
09:55AM 33.6808 -116.8053 78° East 468 539 24,900 1,080 Climbing Los Angeles Center
09:56AM 33.7089 -116.6456 77° East 473 544 25,800 900 Climbing Los Angeles Center
09:57AM 33.7386 -116.4908 77° East 478 550 26,700 840 Climbing Los Angeles Center
09:58AM 33.7681 -116.3311 77° East 484 557 27,500 840 Climbing Los Angeles Center
09:59AM 33.7997 -116.1686 79° East 484 557 28,400 840 Climbing Los Angeles Center
10:00AM 33.8247 -116.0061 79° East 484 557 29,200 780 Climbing Los Angeles Center
10:01AM 33.8514 -115.8411 80° East 489 563 30,000 780 Climbing Los Angeles Center
10:02AM 33.8761 -115.6758 78° East 494 568 30,800 660 Climbing Los Angeles Center
10:03AM 33.9047 -115.5106 79° East 494 568 31,400 600 Climbing Los Angeles Center
10:04AM 33.9308 -115.3450 79° East 494 568 32,100 660 Climbing Los Angeles Center
10:05AM 33.9567 -115.1819 80° East 499 574 32,800 420 Climbing Los Angeles Center
10:06AM 33.9806 -115.0239 79° East 492 566 33,000 60 Climbing Los Angeles Center
10:07AM 34.0061 -114.8608 80° East 487 560 33,000  Level Los Angeles Center
10:08AM 34.0294 -114.7000 80° East 487 560 33,000  Level Los Angeles Center
10:10AM 34.0753 -114.3986 81° East 482 555 33,000  Level Albuquerque Center
10:11AM 34.0978 -114.2278 81° East 497 572 33,000  Level Albuquerque Center
10:12AM 34.1197 -114.0614 85° East 502 578 33,000  Level Albuquerque Center
10:13AM 34.1342 -113.8769 84° East 502 578 33,000  Level Albuquerque Center
10:14AM 34.1497 -113.7050 84° East 497 572 33,000  Level Albuquerque Center
10:15AM 34.1650 -113.5306 85° East 502 578 33,000  Level Albuquerque Center
10:16AM 34.1781 -113.3581 86° East 512 589 33,000  Level Albuquerque Center
10:17AM 34.1886 -113.1833 85° East 519 597 33,000  Level Albuquerque Center
10:18AM 34.2014 -113.0083 84° East 519 597 33,000  Level Albuquerque Center
10:19AM 34.2147 -112.8561 85° East 513 590 33,000  Level Albuquerque Center
10:20AM 34.2267 -112.6811 85° East 519 597 33,000  Level Albuquerque Center
10:21AM 34.2392 -112.4936 85° East 514 592 33,000 -60 Level Albuquerque Center
10:22AM 34.2506 -112.3208 85° East 514 592 32,900 -60 Descending Albuquerque Center
10:23AM 34.2639 -112.1483 85° East 514 592 32,900  Level Albuquerque Center
10:24AM 34.2747 -111.9806 86° East 514 592 33,000  Climbing Albuquerque Center
10:25AM 34.2853 -111.8075 86° East 514 592 33,000  Level Albuquerque Center
10:26AM 34.2958 -111.6347 85° East 514 592 33,000  Level Albuquerque Center
10:27AM 34.3081 -111.4619 87° East 514 592 33,000  Level Albuquerque Center
10:28AM 34.3161 -111.2889 86° East 521 600 33,000  Level Albuquerque Center
10:29AM 34.3258 -111.1158 84° East 521 600 33,000  Level Albuquerque Center
10:30AM 34.3389 -110.9603 87° East 516 594 33,000  Level Albuquerque Center
10:31AM 34.3461 -110.7872 87° East 516 594 33,000  Level Albuquerque Center
10:32AM 34.3556 -110.5964 87° East 516 594 33,000  Level Albuquerque Center
10:33AM 34.3642 -110.4231 86° East 516 594 33,000  Level Albuquerque Center
10:34AM 34.3747 -110.2497 86° East 516 594 33,000  Level Albuquerque Center
10:35AM 34.3847 -110.0942 88° East 516 594 33,000  Level Albuquerque Center
10:36AM 34.3911 -109.9031 87° East 516 594 33,000  Level Albuquerque Center
10:37AM 34.3989 -109.7297 87° East 516 594 33,000  Level Albuquerque Center
10:38AM 34.4064 -109.5536 86° East 511 588 33,000  Level Albuquerque Center
10:39AM 34.4156 -109.3753 87° East 519 597 33,000  Level Albuquerque Center
10:40AM 34.4225 -109.2017 82° East 519 597 33,000  Level Albuquerque Center
10:41AM 34.4419 -109.0283 82° East 513 590 33,000  Level Albuquerque Center
10:42AM 34.4631 -108.8550 83° East 518 596 33,000  Level Albuquerque Center
10:43AM 34.4817 -108.6814 81° East 524 603 33,000  Level Albuquerque Center
10:44AM 34.5044 -108.5053 81° East 524 603 33,000  Level Albuquerque Center
10:45AM 34.5267 -108.3367 84° East 519 597 33,000  Level Albuquerque Center
10:46AM 34.5428 -108.1578 80° East 519 597 33,000  Level Albuquerque Center
10:47AM 34.5667 -107.9842 83° East 524 603 33,000  Level Albuquerque Center
10:48AM 34.5842 -107.8103 81° East 519 597 33,000  Level Albuquerque Center
10:49AM 34.6056 -107.6361 82° East 526 605 33,000  Level Albuquerque Center
10:50AM 34.6225 -107.4797 83° East 521 600 33,000  Level Albuquerque Center
10:51AM 34.6433 -107.2856 82° East 524 603 33,000  Level Albuquerque Center
10:52AM 34.6639 -107.1111 83° East 524 603 33,000  Level Albuquerque Center
10:53AM 34.6822 -106.9319 81° East 524 603 33,000  Level Albuquerque Center
10:54AM 34.7044 -106.7547 83° East 524 603 33,100  Climbing Albuquerque Center
10:55AM 34.7203 -106.6006 82° East 524 603 33,000 -60 Descending Albuquerque Center
10:56AM 34.7400 -106.4208 82° East 524 603 33,000  Level Albuquerque Center
10:57AM 34.7592 -106.2464 83° East 518 596 33,000  Level Albuquerque Center
10:58AM 34.7764 -106.0717 82° East 523 602 33,000  Level Albuquerque Center
10:59AM 34.7953 -105.8967 84° East 518 596 33,000  Level Albuquerque Center
11:00AM 34.8094 -105.7219 83° East 521 600 33,000  Level Albuquerque Center
11:01AM 34.8278 -105.5419 83° East 521 600 33,000  Level Albuquerque Center
11:02AM 34.8478 -105.3517 84° East 521 600 33,000  Level Albuquerque Center
11:03AM 34.8633 -105.1742 84° East 526 605 33,000  Level Albuquerque Center
11:04AM 34.8789 -104.9964 83° East 520 598 33,000  Level Albuquerque Center
11:05AM 34.8961 -104.8211 84° East 525 604 33,000  Level Albuquerque Center
11:06AM 34.9111 -104.6433 84° East 525 604 33,000  Level Albuquerque Center
11:07AM 34.9256 -104.4631 84° East 525 604 33,100  Climbing Albuquerque Center
11:08AM 34.9419 -104.2825 85° East 531 611 33,000 -60 Descending Albuquerque Center
11:09AM 34.9558 -104.1022 83° East 531 611 33,000  Level Albuquerque Center
11:10AM 34.9739 -103.9214 85° East 536 617 33,000  Level Albuquerque Center
11:11AM 34.9872 -103.7408 83° East 541 623 33,000  Level Albuquerque Center
11:12AM 35.0047 -103.5575 85° East 541 623 33,000  Level Albuquerque Center
11:13AM 35.0175 -103.3769 84° East 541 623 33,000 60 Level Albuquerque Center
11:14AM 35.0342 -103.1958 86° East 536 617 33,200 420 Climbing Albuquerque Center
11:15AM 35.0447 -103.0178 84° East 541 623 33,900 360 Climbing Albuquerque Center
11:16AM 35.0575 -102.8547 85° East 536 617 34,000  Climbing Albuquerque Center
11:17AM 35.0714 -102.6739 85° East 536 617 34,000  Level Albuquerque Center
11:18AM 35.0850 -102.4903 85° East 536 617 34,000  Level Albuquerque Center
11:19AM 35.0964 -102.3119 85° East 541 623 34,000  Level Albuquerque Center
11:20AM 35.1094 -102.1308 79° East 541 623 34,000  Level Albuquerque Center
11:21AM 35.1389 -101.9511 76° East 541 623 34,000  Level Albuquerque Center
11:22AM 35.1747 -101.7783 75° East 534 615 34,000  Level Albuquerque Center
11:23AM 35.2142 -101.5950 77° East 544 626 34,000  Level Albuquerque Center
11:24AM 35.2472 -101.4197 74° East 544 626 34,000  Level Albuquerque Center
11:25AM 35.2919 -101.2281 75° East 534 615 34,100 480 Climbing Albuquerque Center
11:26AM 35.3308 -101.0547 75° East 528 608 35,000 420 Climbing Albuquerque Center
11:27AM 35.3681 -100.8886 86° East 512 589 35,000  Level Albuquerque Center
11:28AM 35.3769 -100.7097 89° East 512 589 35,000  Level Albuquerque Center
11:29AM 35.3819 -100.4383 87° East 542 624 35,000  Level Fort Worth Center
11:30AM 35.3883 -100.2656 89° East 529 609 35,000  Level Fort Worth Center
11:31AM 35.3900 -100.0872 88° East 521 600 35,000  Level Fort Worth Center
11:32AM 35.3958 -99.9117 89° East 513 590 35,000  Level Fort Worth Center
11:33AM 35.3992 -99.7386 89° East 513 590 35,000  Level Fort Worth Center
11:34AM 35.4022 -99.5656 89° East 513 590 35,000  Level Fort Worth Center
11:35AM 35.4050 -99.3925 88° East 513 590 35,000  Level Fort Worth Center
11:36AM 35.4097 -99.2169 89° East 513 590 35,000  Level Fort Worth Center
11:37AM 35.4122 -99.0539 89° East 519 597 35,000  Level Fort Worth Center
11:38AM 35.4142 -98.8781 90° East 519 597 35,000  Level Fort Worth Center
11:39AM 35.4142 -98.7050 89° East 514 592 35,000  Level Fort Worth Center
11:40AM 35.4178 -98.5292 89° East 514 592 35,000  Level Fort Worth Center
11:41AM 35.4194 -98.3433 89° East 508 585 35,000  Level Fort Worth Center
11:42AM 35.4206 -98.1728 90° East 508 585 35,000 -60 Level Fort Worth Center
11:43AM 35.4214 -97.9994 90° East 502 578 34,900 -60 Descending Fort Worth Center
11:44AM 35.4222 -97.8289 89° East 502 578 34,900  Level Fort Worth Center
11:45AM 35.4247 -97.6939 90° East 497 572 35,000  Climbing Fort Worth Center
11:46AM 35.4250 -97.4797 90° East 505 581 35,000  Level Fort Worth Center
11:47AM 35.4250 -97.3117 91° East 511 588 35,000  Level Fort Worth Center
11:48AM 35.4225 -97.1358 90° East 511 588 35,000  Level Fort Worth Center
11:49AM 35.4222 -96.9628 89° East 511 588 35,000  Level Fort Worth Center
11:50AM 35.4236 -96.7944 91° East 505 581 35,000  Level Fort Worth Center
11:51AM 35.4206 -96.6214 90° East 505 581 35,000  Level Fort Worth Center
11:52AM 35.4214 -96.4686 91° East 505 581 35,000  Level Fort Worth Center
11:53AM 35.4181 -96.2928 91° East 505 581 35,000  Level Fort Worth Center
11:54AM 35.4164 -96.1197 90° East 505 581 35,000  Level Fort Worth Center
11:56AM 35.4158 -95.8089 91° East 505 581 35,000  Level Memphis Center
11:57AM 35.4131 -95.6331 90° East 505 581 35,000  Level Memphis Center
11:58AM 35.4119 -95.4597 91° East 510 587 35,000  Level Memphis Center
11:59AM 35.4086 -95.2861 81° East 510 587 35,000  Level Memphis Center
12:00PM 35.4297 -95.1142 81° East 510 587 35,000  Level Memphis Center
12:01PM 35.4506 -94.9472 80° East 510 587 35,000 -60 Level Memphis Center
12:02PM 35.4736 -94.7778 81° East 505 581 34,900  Descending Memphis Center
12:03PM 35.4939 -94.6106 81° East 500 575 35,000  Climbing Memphis Center
12:04PM 35.5164 -94.4408 83° East 500 575 35,000  Level Memphis Center
12:05PM 35.5317 -94.2833 79° East 505 581 35,000  Level Memphis Center
12:06PM 35.5581 -94.1111 82° East 505 581 35,000  Level Memphis Center
12:07PM 35.5775 -93.9433 83° East 500 575 35,000  Level Memphis Center
12:08PM 35.5947 -93.7756 81° East 500 575 35,000  Level Memphis Center
12:09PM 35.6158 -93.6056 81° East 500 575 35,000  Level Memphis Center
12:10PM 35.6369 -93.4350 82° East 500 575 35,000  Level Memphis Center
12:11PM 35.6556 -93.2697 82° East 500 575 35,000  Level Memphis Center
12:12PM 35.6764 -93.0814 82° East 500 575 35,000  Level Memphis Center
12:13PM 35.6947 -92.9106 83° East 500 575 35,000  Level Memphis Center
12:14PM 35.7125 -92.7425 83° East 500 575 35,000 -300 Level Memphis Center
12:15PM 35.7303 -92.5742 82° East 500 575 34,400 -840 Descending Memphis Center
12:16PM 35.7497 -92.4058 83° East 500 575 33,400 -1,020 Descending Memphis Center
12:17PM 35.7669 -92.2425 83° East 500 575 32,400 -1,500 Descending Memphis Center
12:18PM 35.7839 -92.0767 83° East 495 570 30,500 -1,980 Descending Memphis Center
12:19PM 35.7986 -91.9208 85° East 483 556 28,500 -1,980 Descending Memphis Center
12:20PM 35.8086 -91.7700 105° East 458 527 26,600 -1,920 Descending Memphis Center
12:21PM 35.7769 -91.6261 115° Southeast 432 497 24,700 -2,040 Descending Memphis Center
12:22PM 35.7261 -91.4925 115° Southeast 421 484 22,600 -1,980 Descending Memphis Center
12:23PM 35.6792 -91.3667 113° Southeast 421 484 20,800 -1,980 Descending Memphis Center
12:24PM 35.6364 -91.2433 115° Southeast 396 456 18,700 -2,100 Descending Memphis Center
12:25PM 35.5911 -91.1231 115° Southeast 391 450 16,700 -2,040 Descending Memphis Center
12:26PM 35.5481 -91.0078 114° Southeast 378 435 14,700 -2,100 Descending Memphis Center
12:27PM 35.5069 -90.8953 115° Southeast 369 425 12,600 -1,800 Descending Memphis Center
12:28PM 35.4656 -90.7853 117° Southeast 358 412 11,200 -1,140 Descending Memphis Center
12:29PM 35.4283 -90.6958 112° Southeast 348 400 10,400 -660 Descending Memphis Center
12:30PM 35.3931 -90.5914 104° East 334 384 9,900 -600 Descending Memphis Center
12:31PM 35.3744 -90.4997 106° East 298 343 9,300 -840 Descending Memphis Center
12:32PM 35.3536 -90.4106 105° East 275 316 8,300 -1,020 Descending Memphis Center
12:33PM 35.3347 -90.3214 104° East 269 310 7,300 -1,080 Descending Memphis Center
12:34PM 35.3161 -90.2272 106° East 263 303 6,200 -1,020 Descending Memphis Center
12:35PM 35.2950 -90.1383 103° East 261 300 5,300 -960 Descending Memphis Center
12:36PM 35.2781 -90.0519 105° East 261 300 4,300 -960 Descending Memphis Center
12:37PM 35.2667 -90.0000 168° South 244 281 3,700 -960 Descending Anchorage Center
12:38PM 35.2000 -89.9833 180° South 220 253 2,700 -840 Descending Anchorage Center
12:39PM 35.1333 -89.9833 180° South 211 243 1,900 -720 Descending Anchorage Center
12:40PM 35.1000 -89.9833 180° South 144 166 1,200 -720 Descending Anchorage Center
12:41PM 35.0500 -89.9833 144° Southeast 141 162 500 -720 Descending Anchorage Center
12:48PM 34.2837 -89.3177 325° Northwest  Level Estimated
12:49PM 35.0333 -89.9667 318° Northwest  Level FlightAware Approximate
12:50PM 35.1307 -90.0740 138° Southeast  Level Estimated
12:51PM 35.0333 -89.9667 318° Northwest  Level FlightAware Approximate
12:52PM 35.1307 -90.0740 138° Southeast  Level Estimated
12:53PM 35.0333 -89.9667 318° Northwest  Level FlightAware Approximate
12:54PM 35.1307 -90.0740 138° Southeast  Level Estimated
12:55PM 35.0333 -89.9667 318° Northwest  Level FlightAware Approximate
12:56PM 35.1307 -90.0740 138° Southeast  Level Estimated
12:57PM 35.0333 -89.9667 318° Northwest  Level FlightAware Approximate
12:58PM 35.1307 -90.0740 138° Southeast  Level Estimated
12:59PM 35.0333 -89.9667 318° Northwest  Level FlightAware Approximate
01:00PM 35.1307 -90.0740 138° Southeast  Level Estimated
01:01PM 35.0333 -89.9667 138° Southeast  Level FlightAware Approximate